createdAt,value
2018-12-25T00:00:15.544Z,21.20
2018-12-25T00:02:48.345Z,19.63
2018-12-25T00:05:21.404Z,20.73
2018-12-25T00:07:54.418Z,20.67
2018-12-25T00:10:27.730Z,19.30
2018-12-25T00:13:01.019Z,19.37
2018-12-25T00:15:34.279Z,21.27
2018-12-25T00:18:07.800Z,20.77
2018-12-25T00:20:40.946Z,18.90
2018-12-25T00:23:14.098Z,18.97
2018-12-25T00:25:47.215Z,18.23
2018-12-25T00:28:20.326Z,16.40
2018-12-25T00:30:53.116Z,15.87
2018-12-25T00:33:26.545Z,15.05
2018-12-25T00:35:59.826Z,15.33
2018-12-25T00:38:32.811Z,15.10
2018-12-25T00:41:05.825Z,14.90
2018-12-25T00:43:39.248Z,14.37
2018-12-25T00:46:12.536Z,14.73
2018-12-25T00:48:45.433Z,17.53
2018-12-25T00:51:18.327Z,15.33
2018-12-25T00:53:51.271Z,14.10
2018-12-25T00:56:24.669Z,14.50
2018-12-25T00:58:57.917Z,14.30
2018-12-25T01:01:31.063Z,14.45
2018-12-25T01:04:04.084Z,14.03
2018-12-25T01:06:37.111Z,13.30
2018-12-25T01:09:13.395Z,13.10
2018-12-25T01:11:46.726Z,12.50
2018-12-25T01:14:19.894Z,12.73
2018-12-25T01:16:54.034Z,12.80
2018-12-25T01:19:27.035Z,12.67
2018-12-25T01:22:00.116Z,13.70
2018-12-25T01:24:32.981Z,12.03
2018-12-25T01:27:06.142Z,11.20
2018-12-25T01:29:39.325Z,14.85
2018-12-25T01:32:12.543Z,14.27
2018-12-25T01:34:45.521Z,12.37
2018-12-25T01:37:18.438Z,13.63
2018-12-25T01:39:51.504Z,14.53
2018-12-25T01:42:24.659Z,12.30
2018-12-25T01:45:00.322Z,15.20
2018-12-25T01:47:32.308Z,15.60
2018-12-25T01:50:05.537Z,14.57
2018-12-25T01:52:38.399Z,13.57
2018-12-25T01:55:11.324Z,13.63
2018-12-25T01:57:44.408Z,14.13
2018-12-25T02:00:17.300Z,12.93
2018-12-25T02:02:50.689Z,12.30
2018-12-25T02:05:23.584Z,12.23
2018-12-25T02:07:56.731Z,11.88
2018-12-25T02:10:29.730Z,11.47
2018-12-25T02:13:03.318Z,11.40
2018-12-25T02:15:36.378Z,10.50
2018-12-25T02:18:10.163Z,8.85
2018-12-25T02:20:43.287Z,9.13
2018-12-25T02:23:16.548Z,8.93
2018-12-25T02:25:49.720Z,8.43
2018-12-25T02:28:22.735Z,7.47
2018-12-25T02:30:55.687Z,7.27
2018-12-25T02:33:28.692Z,7.83
2018-12-25T02:36:02.890Z,8.30
2018-12-25T02:38:37.048Z,7.33
2018-12-25T02:41:11.414Z,7.57
2018-12-25T02:43:45.912Z,7.47
2018-12-25T02:46:20.053Z,7.35
2018-12-25T02:48:54.138Z,6.47
2018-12-25T02:51:28.615Z,6.53
2018-12-25T02:54:01.942Z,6.37
2018-12-25T02:56:35.841Z,6.83
2018-12-25T02:59:09.437Z,6.23
2018-12-25T03:02:01.931Z,6.75
2018-12-25T03:04:35.033Z,6.50
2018-12-25T03:07:08.334Z,6.78
2018-12-25T03:09:41.737Z,5.83
2018-12-25T03:12:14.889Z,6.53
2018-12-25T03:14:48.409Z,6.40
2018-12-25T03:17:21.586Z,5.73
2018-12-25T03:19:59.785Z,6.00
2018-12-25T03:22:28.603Z,5.90
2018-12-25T03:25:01.670Z,6.20
2018-12-25T03:27:34.565Z,5.60
2018-12-25T03:30:07.946Z,5.37
2018-12-25T03:32:41.009Z,5.63
2018-12-25T03:35:14.762Z,5.37
2018-12-25T03:37:47.709Z,4.80
2018-12-25T03:40:20.841Z,5.40
2018-12-25T03:42:54.950Z,4.90
2018-12-25T03:45:28.188Z,4.47
2018-12-25T03:48:01.457Z,4.27
2018-12-25T03:50:34.514Z,4.30
2018-12-25T03:53:07.636Z,4.53
2018-12-25T03:55:41.858Z,4.47
2018-12-25T03:58:14.822Z,3.67
2018-12-25T04:00:47.774Z,3.60
2018-12-25T04:03:20.997Z,3.50
2018-12-25T04:05:54.019Z,4.00
2018-12-25T04:08:27.091Z,3.80
2018-12-25T04:11:00.151Z,3.98
2018-12-25T04:13:33.169Z,3.90
2018-12-25T04:16:06.568Z,3.27
2018-12-25T04:18:39.542Z,3.00
2018-12-25T04:21:12.800Z,2.62
2018-12-25T04:23:45.833Z,3.33
2018-12-25T04:26:18.842Z,2.30
2018-12-25T04:28:51.602Z,1.80
2018-12-25T04:31:24.752Z,2.20
2018-12-25T04:33:58.537Z,2.50
2018-12-25T04:36:32.310Z,2.37
2018-12-25T04:39:06.282Z,2.30
2018-12-25T04:41:39.203Z,8.20
2018-12-25T04:44:12.699Z,6.23
2018-12-25T04:46:46.007Z,3.30
2018-12-25T04:49:19.117Z,3.00
2018-12-25T04:51:52.171Z,2.90
2018-12-25T04:54:25.270Z,2.80
2018-12-25T04:56:58.660Z,2.93
2018-12-25T04:59:31.898Z,2.90
2018-12-25T05:02:04.911Z,3.20
2018-12-25T05:04:37.915Z,2.80
2018-12-25T05:07:11.039Z,3.60
2018-12-25T05:09:44.019Z,3.73
2018-12-25T05:12:17.034Z,3.00
2018-12-25T05:14:50.094Z,2.93
2018-12-25T05:17:23.711Z,2.27
2018-12-25T05:19:56.820Z,2.60
2018-12-25T05:22:29.794Z,2.00
2018-12-25T05:25:02.871Z,2.23
2018-12-25T05:27:35.729Z,2.60
2018-12-25T05:30:09.374Z,2.67
2018-12-25T05:32:42.676Z,2.60
2018-12-25T05:35:16.064Z,3.23
2018-12-25T05:37:50.021Z,2.10
2018-12-25T05:40:23.563Z,2.30
2018-12-25T05:42:56.584Z,2.30
2018-12-25T05:45:29.713Z,3.10
2018-12-25T05:48:02.515Z,3.03
2018-12-25T05:50:35.571Z,3.10
2018-12-25T05:53:08.548Z,2.50
2018-12-25T05:55:41.564Z,3.00
2018-12-25T05:58:14.468Z,2.53
2018-12-25T06:00:52.502Z,2.60
2018-12-25T06:03:25.393Z,2.47
2018-12-25T06:05:59.482Z,2.10
2018-12-25T06:08:32.795Z,2.23
2018-12-25T06:11:06.029Z,2.80
2018-12-25T06:13:39.359Z,2.70
2018-12-25T06:16:12.480Z,2.70
2018-12-25T06:18:45.499Z,2.20
2018-12-25T06:21:18.432Z,3.47
2018-12-25T06:23:51.755Z,2.20
2018-12-25T06:26:24.908Z,2.90
2018-12-25T06:28:57.986Z,3.40
2018-12-25T06:31:31.140Z,2.90
2018-12-25T06:34:04.375Z,3.03
2018-12-25T06:36:37.474Z,2.53
2018-12-25T06:39:10.485Z,2.80
2018-12-25T06:41:43.551Z,3.33
2018-12-25T06:44:16.566Z,2.77
2018-12-25T06:46:49.715Z,2.70
2018-12-25T06:49:22.802Z,3.37
2018-12-25T06:51:55.878Z,2.97
2018-12-25T06:54:28.906Z,2.93
2018-12-25T06:57:01.911Z,3.43
2018-12-25T06:59:34.812Z,3.35
2018-12-25T07:02:07.830Z,3.43
2018-12-25T07:04:41.108Z,2.90
2018-12-25T07:07:14.081Z,3.70
2018-12-25T07:09:46.939Z,3.87
2018-12-25T07:12:19.770Z,4.57
2018-12-25T07:14:52.954Z,5.72
2018-12-25T07:17:26.532Z,5.40
2018-12-25T07:19:59.181Z,4.13
2018-12-25T07:22:32.319Z,4.77
2018-12-25T07:25:05.340Z,4.83
2018-12-25T07:27:38.986Z,4.73
2018-12-25T07:30:12.424Z,5.83
2018-12-25T07:32:45.396Z,4.73
2018-12-25T07:35:18.422Z,4.00
2018-12-25T07:37:51.417Z,3.90
2018-12-25T07:40:24.189Z,5.17
2018-12-25T07:42:57.294Z,4.53
2018-12-25T07:45:30.810Z,5.60
2018-12-25T07:48:03.774Z,4.10
2018-12-25T07:50:36.640Z,4.40
2018-12-25T07:53:09.653Z,4.72
2018-12-25T07:55:42.842Z,2.77
2018-12-25T07:58:15.838Z,4.67
2018-12-25T08:00:49.025Z,3.27
2018-12-25T08:03:30.683Z,4.27
2018-12-25T08:06:03.854Z,4.17
2018-12-25T08:08:37.037Z,3.23
2018-12-25T08:11:09.980Z,3.80
2018-12-25T08:13:43.177Z,3.83
2018-12-25T08:16:16.157Z,3.90
2018-12-25T08:18:49.119Z,3.53
2018-12-25T08:21:29.055Z,5.33
2018-12-25T08:23:56.491Z,5.33
2018-12-25T08:26:29.640Z,5.37
2018-12-25T08:29:02.546Z,4.87
2018-12-25T08:31:36.449Z,5.43
2018-12-25T08:34:09.917Z,5.70
2018-12-25T08:36:43.119Z,5.00
2018-12-25T08:39:15.864Z,4.27
2018-12-25T08:41:48.873Z,5.73
2018-12-25T08:44:21.835Z,4.83
2018-12-25T08:46:54.744Z,5.70
2018-12-25T08:49:27.730Z,6.20
2018-12-25T08:52:00.893Z,5.13
2018-12-25T08:54:33.984Z,5.05
2018-12-25T08:57:06.794Z,3.97
2018-12-25T08:59:39.724Z,5.35
2018-12-25T09:02:12.860Z,4.57
2018-12-25T09:04:45.880Z,5.23
2018-12-25T09:07:18.907Z,5.70
2018-12-25T09:09:52.061Z,4.53
2018-12-25T09:12:25.114Z,4.77
2018-12-25T09:14:58.132Z,4.03
2018-12-25T09:17:30.952Z,3.62
2018-12-25T09:20:03.885Z,4.23
2018-12-25T09:22:36.901Z,3.80
2018-12-25T09:25:10.787Z,4.90
2018-12-25T09:27:44.317Z,4.87
2018-12-25T09:30:17.394Z,4.10
2018-12-25T09:32:50.843Z,4.60
2018-12-25T09:35:24.715Z,5.23
2018-12-25T09:37:57.774Z,5.17
2018-12-25T09:40:30.852Z,4.40
2018-12-25T09:43:03.912Z,5.90
2018-12-25T09:45:37.068Z,4.95
2018-12-25T09:48:13.414Z,5.40
2018-12-25T09:50:44.930Z,5.10
2018-12-25T09:53:17.967Z,4.50
2018-12-25T09:55:50.949Z,5.50
2018-12-25T09:58:25.005Z,3.90
2018-12-25T10:00:58.062Z,4.70
2018-12-25T10:03:31.236Z,4.80
2018-12-25T10:06:04.251Z,4.27
2018-12-25T10:08:37.364Z,5.20
2018-12-25T10:11:10.432Z,4.60
2018-12-25T10:13:43.492Z,4.42
2018-12-25T10:16:16.417Z,4.57
2018-12-25T10:18:49.584Z,5.20
2018-12-25T10:21:22.344Z,4.60
2018-12-25T10:23:56.338Z,4.60
2018-12-25T10:26:29.577Z,4.80
2018-12-25T10:29:02.703Z,4.47
2018-12-25T10:31:39.669Z,4.43
2018-12-25T10:34:19.702Z,4.27
2018-12-25T10:37:09.617Z,4.77
2018-12-25T10:39:43.658Z,4.40
2018-12-25T10:42:16.724Z,4.97
2018-12-25T10:44:49.871Z,6.03
2018-12-25T10:47:23.230Z,6.50
2018-12-25T10:49:56.323Z,6.50
2018-12-25T10:52:29.345Z,4.57
2018-12-25T10:55:02.421Z,6.13
2018-12-25T10:57:35.496Z,5.00
2018-12-25T11:00:13.747Z,3.87
2018-12-25T11:02:47.037Z,4.73
2018-12-25T11:05:20.569Z,5.27
2018-12-25T11:07:53.756Z,4.43
2018-12-25T11:10:26.811Z,4.30
2018-12-25T11:12:59.888Z,4.30
2018-12-25T11:15:33.016Z,3.90
2018-12-25T11:18:06.241Z,4.30
2018-12-25T11:20:39.311Z,4.30
2018-12-25T11:23:12.312Z,4.10
2018-12-25T11:25:46.222Z,4.00
2018-12-25T11:28:19.463Z,4.47
2018-12-25T11:30:52.401Z,4.77
2018-12-25T11:33:25.509Z,4.53
2018-12-25T11:35:58.639Z,4.10
2018-12-25T11:38:31.642Z,3.07
2018-12-25T11:41:05.311Z,3.30
2018-12-25T11:43:38.674Z,3.10
2018-12-25T11:46:11.637Z,3.47
2018-12-25T11:48:44.762Z,3.60
2018-12-25T11:51:17.759Z,4.37
2018-12-25T11:53:50.729Z,3.87
2018-12-25T11:56:23.837Z,3.30
2018-12-25T11:58:56.821Z,3.37
2018-12-25T12:01:33.815Z,2.67
2018-12-25T12:04:06.857Z,3.27
2018-12-25T12:06:40.154Z,3.63
2018-12-25T12:09:13.318Z,3.67
2018-12-25T12:11:46.457Z,3.23
2018-12-25T12:14:19.527Z,2.50
2018-12-25T12:16:52.580Z,2.73
2018-12-25T12:19:25.540Z,2.70
2018-12-25T12:21:58.913Z,3.20
2018-12-25T12:24:32.615Z,2.90
2018-12-25T12:27:05.756Z,2.80
2018-12-25T12:29:38.727Z,2.70
2018-12-25T12:32:12.751Z,2.43
2018-12-25T12:34:45.795Z,2.97
2018-12-25T12:37:18.898Z,3.50
2018-12-25T12:39:51.992Z,3.67
2018-12-25T12:42:25.419Z,3.55
2018-12-25T12:44:58.876Z,3.77
2018-12-25T12:47:31.920Z,2.80
2018-12-25T12:50:05.921Z,2.80
2018-12-25T12:52:45.396Z,2.80
2018-12-25T12:55:13.168Z,2.58
2018-12-25T12:57:46.208Z,2.22
2018-12-25T13:00:19.327Z,2.22
2018-12-25T13:02:52.350Z,2.70
2018-12-25T13:05:25.597Z,2.65
2018-12-25T13:07:58.648Z,2.27
2018-12-25T13:10:31.703Z,3.20
2018-12-25T13:13:04.756Z,2.22
2018-12-25T13:15:37.868Z,2.33
2018-12-25T13:18:10.967Z,2.90
2018-12-25T13:20:44.238Z,2.40
2018-12-25T13:23:17.702Z,1.57
2018-12-25T13:25:51.171Z,2.67
2018-12-25T13:28:24.810Z,2.52
2018-12-25T13:30:57.448Z,2.97
2018-12-25T13:33:30.623Z,2.80
2018-12-25T13:36:03.916Z,2.73
2018-12-25T13:38:36.988Z,2.70
2018-12-25T13:41:10.454Z,3.67
2018-12-25T13:43:43.467Z,2.40
2018-12-25T13:46:16.543Z,1.97
2018-12-25T13:48:50.006Z,2.40
2018-12-25T13:51:22.944Z,2.10
2018-12-25T13:53:55.790Z,2.47
2018-12-25T13:56:28.780Z,1.30
2018-12-25T13:59:01.805Z,2.07
2018-12-25T14:01:34.702Z,1.97
2018-12-25T14:04:07.804Z,5.43
2018-12-25T14:06:40.800Z,4.93
2018-12-25T14:09:13.971Z,2.65
2018-12-25T14:11:46.980Z,3.05
2018-12-25T14:14:20.223Z,3.27
2018-12-25T14:16:53.244Z,3.58
2018-12-25T14:19:26.600Z,4.73
2018-12-25T14:21:59.793Z,3.43
2018-12-25T14:24:32.907Z,3.30
2018-12-25T14:27:05.927Z,2.93
2018-12-25T14:29:38.922Z,1.90
2018-12-25T14:32:11.523Z,2.27
2018-12-25T14:34:44.434Z,2.60
2018-12-25T14:37:17.400Z,2.13
2018-12-25T14:39:50.414Z,1.90
2018-12-25T14:42:23.493Z,1.67
2018-12-25T14:44:56.426Z,2.20
2018-12-25T14:47:29.480Z,2.00
2018-12-25T14:50:02.480Z,2.43
2018-12-25T14:52:35.963Z,2.80
2018-12-25T14:55:08.773Z,2.60
2018-12-25T14:57:41.698Z,2.70
2018-12-25T15:00:15.225Z,1.80
2018-12-25T15:02:48.365Z,2.53
2018-12-25T15:05:21.484Z,2.17
2018-12-25T15:07:54.605Z,2.25
2018-12-25T15:10:27.597Z,2.00
2018-12-25T15:13:00.913Z,2.10
2018-12-25T15:15:34.035Z,2.17
2018-12-25T15:18:06.975Z,1.07
2018-12-25T15:20:39.794Z,1.43
2018-12-25T15:23:12.847Z,2.03
2018-12-25T15:25:45.840Z,2.47
2018-12-25T15:28:18.724Z,2.83
2018-12-25T15:30:51.586Z,2.67
2018-12-25T15:33:24.598Z,3.20
2018-12-25T15:35:57.885Z,2.67
2018-12-25T15:38:30.785Z,2.27
2018-12-25T15:41:03.961Z,1.77
2018-12-25T15:43:36.906Z,2.03
2018-12-25T15:46:09.671Z,2.17
2018-12-25T15:48:42.255Z,2.47
2018-12-25T15:51:15.357Z,2.00
2018-12-25T15:53:50.392Z,2.17
2018-12-25T15:56:23.176Z,1.70
2018-12-25T15:58:56.343Z,1.50
2018-12-25T16:01:29.258Z,2.30
2018-12-25T16:04:02.332Z,2.00
2018-12-25T16:06:35.288Z,2.25
2018-12-25T16:09:09.481Z,2.50
2018-12-25T16:11:42.575Z,1.80
2018-12-25T16:14:15.578Z,2.00
2018-12-25T16:16:48.511Z,2.17
2018-12-25T16:19:21.447Z,2.60
2018-12-25T16:21:54.482Z,2.70
2018-12-25T16:24:27.782Z,1.98
2018-12-25T16:27:02.691Z,2.57
2018-12-25T16:29:35.738Z,2.00
2018-12-25T16:32:08.937Z,1.50
2018-12-25T16:34:41.594Z,3.13
2018-12-25T16:37:14.707Z,1.37
2018-12-25T16:39:47.889Z,1.77
2018-12-25T16:42:21.011Z,1.70
2018-12-25T16:44:54.136Z,2.53
2018-12-25T16:47:27.627Z,2.00
2018-12-25T16:50:00.660Z,2.33
2018-12-25T16:52:33.978Z,1.83
2018-12-25T16:55:07.082Z,2.07
2018-12-25T16:57:40.218Z,1.87
2018-12-25T17:00:13.347Z,2.20
2018-12-25T17:02:46.981Z,2.47
2018-12-25T17:05:20.213Z,2.87
2018-12-25T17:07:53.576Z,2.00
2018-12-25T17:10:26.891Z,2.47
2018-12-25T17:12:59.853Z,2.00
2018-12-25T17:15:32.785Z,2.23
2018-12-25T17:18:05.917Z,2.27
2018-12-25T17:20:38.880Z,2.10
2018-12-25T17:23:11.954Z,2.03
2018-12-25T17:25:45.812Z,1.20
2018-12-25T17:28:18.799Z,1.47
2018-12-25T17:30:51.895Z,1.00
2018-12-25T17:33:24.859Z,2.20
2018-12-25T17:35:58.214Z,1.70
2018-12-25T17:38:31.460Z,1.97
2018-12-25T17:41:07.801Z,2.80
2018-12-25T17:43:40.946Z,1.93
2018-12-25T17:46:14.492Z,2.00
2018-12-25T17:49:16.695Z,1.60
2018-12-25T17:51:50.320Z,1.30
2018-12-25T17:54:23.464Z,1.80
2018-12-25T17:57:56.597Z,2.40
2018-12-25T18:00:34.184Z,3.80
2018-12-25T18:03:07.535Z,2.53
2018-12-25T18:05:41.060Z,2.67
2018-12-25T18:08:14.206Z,2.40
2018-12-25T18:10:47.192Z,2.30
2018-12-25T18:13:20.210Z,1.77
2018-12-25T18:15:53.320Z,1.93
2018-12-25T18:18:26.782Z,2.53
2018-12-25T18:20:59.992Z,3.97
2018-12-25T18:23:33.087Z,1.70
2018-12-25T18:26:06.189Z,1.87
2018-12-25T18:28:39.328Z,1.70
2018-12-25T18:31:12.372Z,1.93
2018-12-25T18:33:45.546Z,2.30
2018-12-25T18:36:18.547Z,2.17
2018-12-25T18:38:51.783Z,2.47
2018-12-25T18:41:26.649Z,2.00
2018-12-25T18:46:50.593Z,2.37
2018-12-25T18:49:23.632Z,1.73
2018-12-25T18:51:56.882Z,1.97
2018-12-25T18:54:30.167Z,1.93
2018-12-25T18:57:22.235Z,1.80
2018-12-25T18:59:55.302Z,1.67
2018-12-25T19:02:28.676Z,2.63
2018-12-25T19:05:01.536Z,3.30
2018-12-25T19:07:34.855Z,2.70
2018-12-25T19:10:09.919Z,3.43
2018-12-25T19:12:43.191Z,2.33
2018-12-25T19:15:24.003Z,1.57
2018-12-25T19:17:57.025Z,1.67
2018-12-25T19:20:31.050Z,2.22
2018-12-25T19:23:04.555Z,0.93
2018-12-25T19:25:37.798Z,1.27
2018-12-25T19:28:20.515Z,1.47
2018-12-25T19:30:56.637Z,1.60
2018-12-25T19:33:29.770Z,1.60
2018-12-25T19:38:44.891Z,1.43
2018-12-25T19:41:18.037Z,1.23
2018-12-25T19:43:51.228Z,1.27
2018-12-25T19:46:24.631Z,1.13
2018-12-25T19:48:57.705Z,2.00
2018-12-25T19:51:32.616Z,1.00
2018-12-25T19:54:05.486Z,1.30
2018-12-25T19:56:46.213Z,1.32
2018-12-25T19:59:19.303Z,1.70
2018-12-25T20:01:52.376Z,0.90
2018-12-25T20:04:28.206Z,2.73
2018-12-25T20:07:37.394Z,3.30
2018-12-25T20:10:45.234Z,2.23
2018-12-25T20:13:46.609Z,2.17
2018-12-25T20:16:34.640Z,2.20
2018-12-25T20:19:18.927Z,1.32
2018-12-25T20:22:23.009Z,1.00
2018-12-25T20:25:20.039Z,1.47
2018-12-25T20:28:28.992Z,1.40
2018-12-25T20:31:30.182Z,1.07
2018-12-25T20:34:21.242Z,1.40
2018-12-25T20:37:34.786Z,2.30
2018-12-25T20:40:39.094Z,1.10
2018-12-25T20:43:36.107Z,1.77
2018-12-25T20:47:01.292Z,1.30
2018-12-25T20:50:03.159Z,1.63
2018-12-25T20:53:17.913Z,1.40
2018-12-25T20:59:19.711Z,1.37
2018-12-25T21:02:19.381Z,1.27
2018-12-25T21:05:19.113Z,1.07
2018-12-25T21:08:09.792Z,0.95
2018-12-25T21:11:28.672Z,1.33
2018-12-25T21:14:42.644Z,2.35
2018-12-25T21:17:32.528Z,1.57
2018-12-25T21:20:32.441Z,1.53
2018-12-25T21:23:57.668Z,1.73
2018-12-25T21:27:23.003Z,1.57
2018-12-25T21:29:56.260Z,2.13
2018-12-25T21:32:30.081Z,1.72
2018-12-25T21:38:17.066Z,1.80
2018-12-25T21:40:50.386Z,1.80
2018-12-25T21:43:23.787Z,1.70
2018-12-25T21:45:57.332Z,2.00
2018-12-25T21:48:30.739Z,1.60
2018-12-25T21:51:07.274Z,1.75
2018-12-25T21:53:43.954Z,2.47
2018-12-25T21:56:17.407Z,1.80
2018-12-25T21:58:50.451Z,2.47
2018-12-25T22:01:24.798Z,2.80
2018-12-25T22:03:58.036Z,2.40
2018-12-25T22:06:32.779Z,2.50
2018-12-25T22:09:06.753Z,2.20
2018-12-25T22:11:39.801Z,1.73
2018-12-25T22:14:15.793Z,2.03
2018-12-25T22:16:50.019Z,2.53
2018-12-25T22:19:23.040Z,1.72
2018-12-25T22:21:56.278Z,1.63
2018-12-25T22:24:29.592Z,2.07
2018-12-25T22:27:02.883Z,1.98
2018-12-25T22:29:36.353Z,2.10
2018-12-25T22:32:09.994Z,2.30
2018-12-25T22:34:43.224Z,2.70
2018-12-25T22:37:16.209Z,2.17
2018-12-25T22:39:49.466Z,2.80
2018-12-25T22:42:22.659Z,3.30
2018-12-25T22:44:55.604Z,3.33
2018-12-25T22:47:28.561Z,2.80
2018-12-25T22:50:01.597Z,2.80
2018-12-25T22:52:34.496Z,2.50
2018-12-25T22:55:08.915Z,2.70
2018-12-25T22:57:42.581Z,2.57
2018-12-25T23:00:15.904Z,2.90
2018-12-25T23:02:48.969Z,3.83
2018-12-25T23:05:22.009Z,2.73
2018-12-25T23:07:55.177Z,3.63
2018-12-25T23:10:28.343Z,3.30
2018-12-25T23:13:01.478Z,2.67
2018-12-25T23:15:34.924Z,3.63
2018-12-25T23:18:08.138Z,3.20
2018-12-25T23:20:41.704Z,3.43
2018-12-25T23:23:14.914Z,3.70
2018-12-25T23:25:48.104Z,3.83
2018-12-25T23:28:21.186Z,4.50
2018-12-25T23:30:54.679Z,3.00
2018-12-25T23:33:27.637Z,3.93
2018-12-25T23:36:01.986Z,3.47
2018-12-25T23:38:35.204Z,3.70
2018-12-25T23:41:08.203Z,4.50
2018-12-25T23:43:41.092Z,3.90
2018-12-25T23:46:14.059Z,3.73
2018-12-25T23:48:46.964Z,4.43
2018-12-25T23:51:20.401Z,6.07
2018-12-25T23:53:53.585Z,5.50
2018-12-25T23:56:27.357Z,4.77
2018-12-25T23:59:00.617Z,5.77
